createdAt,value
2017-12-02T00:02:01.464Z,38.55
2017-12-02T00:04:27.708Z,34.97
2017-12-02T00:06:53.966Z,33.78
2017-12-02T00:09:20.209Z,35.75
2017-12-02T00:11:47.356Z,36.10
2017-12-02T00:14:13.628Z,36.83
2017-12-02T00:16:39.873Z,35.83
2017-12-02T00:19:06.298Z,39.15
2017-12-02T00:21:32.847Z,41.95
2017-12-02T00:23:59.138Z,35.30
2017-12-02T00:26:26.180Z,35.25
2017-12-02T00:28:52.441Z,36.15
2017-12-02T00:31:18.880Z,39.78
2017-12-02T00:33:45.953Z,39.00
2017-12-02T00:36:12.205Z,36.83
2017-12-02T00:38:38.444Z,38.17
2017-12-02T00:41:05.841Z,39.78
2017-12-02T00:43:32.150Z,44.72
2017-12-02T00:45:58.387Z,45.50
2017-12-02T00:48:24.618Z,41.08
2017-12-02T00:50:50.914Z,41.70
2017-12-02T00:53:17.399Z,43.70
2017-12-02T00:55:43.682Z,40.80
2017-12-02T00:58:09.914Z,40.72
2017-12-02T01:00:36.177Z,42.20
2017-12-02T01:03:02.439Z,41.92
2017-12-02T01:05:28.689Z,40.50
2017-12-02T01:07:55.749Z,39.35
2017-12-02T01:10:23.293Z,37.78
2017-12-02T01:12:49.677Z,39.40
2017-12-02T01:15:15.922Z,37.38
2017-12-02T01:17:42.177Z,38.42
2017-12-02T01:20:08.530Z,36.33
2017-12-02T01:22:35.769Z,36.72
2017-12-02T01:25:02.054Z,36.33
2017-12-02T01:27:28.322Z,36.05
2017-12-02T01:29:54.565Z,35.78
2017-12-02T01:32:20.810Z,34.55
2017-12-02T01:34:48.470Z,33.17
2017-12-02T01:37:14.691Z,34.42
2017-12-02T01:39:41.015Z,33.05
2017-12-02T01:42:07.242Z,32.80
2017-12-02T01:44:33.574Z,34.45
2017-12-02T01:46:59.815Z,32.88
2017-12-02T01:49:26.034Z,34.95
2017-12-02T01:51:52.263Z,35.70
2017-12-02T01:54:22.332Z,35.38
2017-12-02T01:56:48.614Z,35.25
2017-12-02T01:59:14.837Z,34.25
2017-12-02T02:01:41.274Z,36.15
2017-12-02T02:04:07.526Z,34.30
2017-12-02T02:06:33.770Z,34.83
2017-12-02T02:08:59.992Z,34.55
2017-12-02T02:11:26.947Z,37.75
2017-12-02T02:13:53.906Z,37.10
2017-12-02T02:16:20.194Z,34.78
2017-12-02T02:18:47.150Z,36.30
2017-12-02T02:21:13.526Z,34.35
2017-12-02T02:23:39.837Z,35.83
2017-12-02T02:26:06.068Z,35.67
2017-12-02T02:28:32.345Z,39.30
2017-12-02T02:30:58.521Z,37.63
2017-12-02T02:33:24.888Z,39.85
2017-12-02T02:35:51.159Z,40.65
2017-12-02T02:38:17.449Z,40.12
2017-12-02T02:40:43.675Z,41.90
2017-12-02T02:43:09.924Z,41.53
2017-12-02T02:45:36.177Z,47.80
2017-12-02T02:48:02.516Z,46.67
2017-12-02T02:50:28.734Z,47.58
2017-12-02T02:52:55.849Z,50.53
2017-12-02T02:55:22.047Z,55.00
2017-12-02T02:57:49.861Z,54.35
2017-12-02T03:00:16.106Z,51.65
2017-12-02T03:02:42.480Z,53.75
2017-12-02T03:05:08.786Z,49.42
2017-12-02T03:07:35.098Z,46.90
2017-12-02T03:10:01.346Z,52.40
2017-12-02T03:12:29.502Z,55.53
2017-12-02T03:14:56.154Z,54.85
2017-12-02T03:17:22.408Z,55.58
2017-12-02T03:19:48.647Z,54.03
2017-12-02T03:22:14.913Z,52.75
2017-12-02T03:24:41.154Z,53.70
2017-12-02T03:27:07.419Z,51.70
2017-12-02T03:29:33.657Z,53.22
2017-12-02T03:32:00.506Z,58.67
2017-12-02T03:34:26.750Z,55.28
2017-12-02T03:36:52.991Z,60.28
2017-12-02T03:39:19.340Z,60.05
2017-12-02T03:41:45.572Z,62.58
2017-12-02T03:44:11.814Z,64.18
2017-12-02T03:46:38.077Z,64.00
2017-12-02T03:49:04.296Z,65.90
2017-12-02T03:51:30.574Z,63.00
2017-12-02T03:53:56.818Z,62.47
2017-12-02T03:56:23.330Z,62.53
2017-12-02T03:58:49.589Z,57.72
2017-12-02T04:01:15.817Z,61.40
2017-12-02T04:03:42.086Z,66.03
2017-12-02T04:06:08.350Z,54.92
2017-12-02T04:08:34.622Z,61.03
2017-12-02T04:11:00.833Z,57.53
2017-12-02T04:13:27.817Z,58.83
2017-12-02T04:15:54.849Z,54.80
2017-12-02T04:18:21.821Z,48.22
2017-12-02T04:20:48.075Z,52.03
2017-12-02T04:23:14.323Z,53.65
2017-12-02T04:25:40.724Z,51.20
2017-12-02T04:28:07.731Z,51.65
2017-12-02T04:30:33.975Z,56.37
2017-12-02T04:33:00.222Z,54.58
2017-12-02T04:35:26.509Z,61.85
2017-12-02T04:37:52.765Z,57.72
2017-12-02T04:40:19.021Z,57.90
2017-12-02T04:42:45.261Z,80.85
2017-12-02T04:45:11.564Z,82.72
2017-12-02T04:47:37.831Z,94.65
2017-12-02T04:50:04.064Z,73.28
2017-12-02T04:52:30.915Z,75.80
2017-12-02T04:54:57.874Z,78.72
2017-12-02T04:57:24.118Z,75.20
2017-12-02T04:59:50.430Z,65.32
2017-12-02T05:02:17.422Z,70.07
2017-12-02T05:04:43.681Z,75.85
2017-12-02T05:07:09.910Z,72.47
2017-12-02T05:09:36.272Z,79.12
2017-12-02T05:12:02.590Z,80.80
2017-12-02T05:14:28.838Z,85.00
2017-12-02T05:16:55.098Z,91.90
2017-12-02T05:19:21.342Z,81.78
2017-12-02T05:21:47.533Z,85.10
2017-12-02T05:24:13.862Z,79.97
2017-12-02T05:26:40.166Z,72.45
2017-12-02T05:29:06.453Z,69.82
2017-12-02T05:31:33.453Z,77.40
2017-12-02T05:33:59.726Z,80.30
2017-12-02T05:36:25.973Z,65.32
2017-12-02T05:38:52.189Z,77.22
2017-12-02T05:41:18.474Z,73.80
2017-12-02T05:43:44.760Z,67.70
2017-12-02T05:46:11.019Z,68.95
2017-12-02T05:48:37.304Z,74.78
2017-12-02T05:51:03.557Z,69.00
2017-12-02T05:53:30.554Z,67.10
2017-12-02T05:55:56.786Z,70.18
2017-12-02T05:58:23.103Z,69.47
2017-12-02T06:00:49.368Z,62.83
2017-12-02T06:03:15.681Z,84.30
2017-12-02T06:05:41.901Z,70.32
2017-12-02T06:08:08.960Z,75.12
2017-12-02T06:10:36.901Z,72.78
2017-12-02T06:13:03.238Z,78.18
2017-12-02T06:15:30.229Z,80.12
2017-12-02T06:17:56.454Z,78.25
2017-12-02T06:20:22.657Z,72.40
2017-12-02T06:22:48.905Z,68.90
2017-12-02T06:25:15.188Z,76.40
2017-12-02T06:27:41.525Z,66.43
2017-12-02T06:30:07.785Z,70.57
2017-12-02T06:32:34.108Z,74.03
2017-12-02T06:35:00.333Z,72.15
2017-12-02T06:37:26.586Z,81.78
2017-12-02T06:39:52.807Z,76.70
2017-12-02T06:42:19.014Z,73.65
2017-12-02T06:44:46.043Z,66.30
2017-12-02T06:47:12.290Z,64.22
2017-12-02T06:49:38.575Z,69.15
2017-12-02T06:52:05.517Z,64.22
2017-12-02T06:54:32.562Z,60.72
2017-12-02T06:56:58.814Z,57.40
2017-12-02T06:59:25.006Z,59.03
2017-12-02T07:01:51.746Z,63.30
2017-12-02T07:04:18.002Z,63.90
2017-12-02T07:06:44.233Z,67.95
2017-12-02T07:09:10.820Z,67.15
2017-12-02T07:11:38.261Z,59.58
2017-12-02T07:14:04.533Z,69.97
2017-12-02T07:16:31.538Z,69.15
2017-12-02T07:18:57.837Z,64.25
2017-12-02T07:21:25.121Z,79.47
2017-12-02T07:23:51.389Z,73.35
2017-12-02T07:26:17.708Z,68.57
2017-12-02T07:28:43.997Z,66.47
2017-12-02T07:31:10.294Z,65.80
2017-12-02T07:33:36.571Z,63.05
2017-12-02T07:36:02.845Z,69.25
2017-12-02T07:38:29.137Z,69.82
2017-12-02T07:40:55.450Z,63.72
2017-12-02T07:43:21.706Z,63.80
2017-12-02T07:45:49.055Z,67.47
2017-12-02T07:48:15.294Z,60.40
2017-12-02T07:50:42.350Z,67.20
2017-12-02T07:53:08.600Z,62.00
2017-12-02T07:55:34.819Z,59.40
2017-12-02T07:58:01.833Z,63.75
2017-12-02T08:00:28.103Z,58.08
2017-12-02T08:02:54.617Z,61.15
2017-12-02T08:05:21.558Z,55.58
2017-12-02T08:07:47.765Z,57.30
2017-12-02T08:10:13.990Z,54.72
2017-12-02T08:12:41.031Z,48.95
2017-12-02T08:15:08.645Z,51.83
2017-12-02T08:17:34.941Z,48.00
2017-12-02T08:20:01.195Z,45.92
2017-12-02T08:22:27.421Z,48.38
2017-12-02T08:24:53.666Z,45.15
2017-12-02T08:27:19.918Z,43.50
2017-12-02T08:29:46.281Z,64.40
2017-12-02T08:32:12.540Z,47.95
2017-12-02T08:34:39.618Z,47.55
2017-12-02T08:37:06.553Z,45.15
2017-12-02T08:39:32.723Z,44.80
2017-12-02T08:41:58.961Z,46.25
2017-12-02T08:44:25.240Z,44.92
2017-12-02T08:46:51.477Z,43.90
2017-12-02T08:49:18.565Z,48.22
2017-12-02T08:51:44.802Z,42.88
2017-12-02T08:54:11.045Z,47.85
2017-12-02T08:56:37.295Z,44.45
2017-12-02T08:59:03.589Z,47.90
2017-12-02T09:01:29.827Z,44.70
2017-12-02T09:03:56.084Z,41.90
2017-12-02T09:06:23.440Z,49.38
2017-12-02T09:08:49.664Z,38.78
2017-12-02T09:11:15.999Z,39.55
2017-12-02T09:13:43.290Z,37.20
2017-12-02T09:16:09.540Z,39.90
2017-12-02T09:18:35.812Z,40.12
2017-12-02T09:21:02.050Z,36.08
2017-12-02T09:23:28.900Z,36.58
2017-12-02T09:25:55.130Z,36.70
2017-12-02T09:28:22.142Z,37.38
2017-12-02T09:30:48.422Z,33.50
2017-12-02T09:33:14.641Z,36.83
2017-12-02T09:35:41.326Z,36.78
2017-12-02T09:38:07.578Z,36.45
2017-12-02T09:40:33.797Z,35.45
2017-12-02T09:43:00.525Z,38.75
2017-12-02T09:45:26.768Z,36.63
2017-12-02T09:47:53.141Z,35.92
2017-12-02T09:50:20.300Z,36.00
2017-12-02T09:52:46.571Z,39.05
2017-12-02T09:55:12.789Z,38.78
2017-12-02T09:57:39.016Z,50.60
2017-12-02T10:00:05.301Z,36.50
2017-12-02T10:02:32.449Z,33.38
2017-12-02T10:04:58.703Z,32.85
2017-12-02T10:07:24.941Z,31.98
2017-12-02T10:09:51.173Z,36.17
2017-12-02T10:12:18.165Z,36.67
2017-12-02T10:14:44.410Z,34.72
2017-12-02T10:17:10.697Z,36.88
2017-12-02T10:19:37.015Z,35.38
2017-12-02T10:22:03.269Z,31.65
2017-12-02T10:24:29.530Z,34.13
2017-12-02T10:26:55.874Z,34.40
2017-12-02T10:29:22.093Z,35.60
2017-12-02T10:31:48.370Z,32.85
2017-12-02T10:34:18.222Z,35.30
2017-12-02T10:36:44.462Z,33.45
2017-12-02T10:39:10.821Z,36.85
2017-12-02T10:41:37.420Z,36.58
2017-12-02T10:44:03.753Z,40.60
2017-12-02T10:46:30.745Z,37.03
2017-12-02T10:48:57.118Z,39.97
2017-12-02T10:51:25.586Z,38.22
2017-12-02T10:53:51.838Z,36.72
2017-12-02T10:56:18.098Z,36.78
2017-12-02T10:58:44.321Z,37.72
2017-12-02T11:01:10.570Z,42.53
2017-12-02T11:03:37.601Z,37.17
2017-12-02T11:06:04.594Z,33.20
2017-12-02T11:08:30.882Z,35.38
2017-12-02T11:10:57.183Z,31.70
2017-12-02T11:13:23.466Z,25.95
2017-12-02T11:15:49.701Z,27.15
2017-12-02T11:18:16.081Z,28.00
2017-12-02T11:20:44.353Z,23.48
2017-12-02T11:23:11.370Z,32.55
2017-12-02T11:25:37.677Z,27.95
2017-12-02T11:28:03.935Z,28.15
2017-12-02T11:30:30.309Z,31.67
2017-12-02T11:32:56.572Z,32.95
2017-12-02T11:35:26.053Z,27.90
2017-12-02T11:37:52.353Z,26.08
2017-12-02T11:40:18.664Z,26.12
2017-12-02T11:42:44.948Z,28.85
2017-12-02T11:45:11.192Z,32.03
2017-12-02T11:47:37.554Z,29.73
2017-12-02T11:50:03.793Z,30.65
2017-12-02T11:52:30.784Z,31.42
2017-12-02T11:54:57.747Z,35.67
2017-12-02T11:57:24.878Z,31.20
2017-12-02T11:59:51.217Z,31.60
2017-12-02T12:02:17.474Z,29.17
2017-12-02T12:04:43.690Z,27.23
2017-12-02T12:07:09.943Z,28.85
2017-12-02T12:09:36.069Z,28.23
2017-12-02T12:12:02.149Z,28.25
2017-12-02T12:14:32.044Z,28.20
2017-12-02T12:16:58.279Z,26.48
2017-12-02T12:19:25.611Z,27.15
2017-12-02T12:21:53.878Z,28.73
2017-12-02T12:24:20.070Z,27.92
2017-12-02T12:26:46.297Z,24.25
2017-12-02T12:29:12.548Z,26.77
2017-12-02T12:31:39.497Z,28.27
2017-12-02T12:34:06.462Z,26.65
2017-12-02T12:36:32.528Z,29.17
2017-12-02T12:39:01.819Z,29.48
2017-12-02T12:41:28.353Z,27.05
2017-12-02T12:43:54.752Z,29.30
2017-12-02T12:46:22.906Z,30.62
2017-12-02T12:48:49.202Z,29.08
2017-12-02T12:51:15.433Z,28.85
2017-12-02T12:53:41.758Z,33.38
2017-12-02T12:56:07.813Z,32.03
2017-12-02T12:58:33.855Z,30.10
2017-12-02T13:01:00.669Z,30.05
2017-12-02T13:03:27.435Z,27.15
2017-12-02T13:05:53.576Z,23.23
2017-12-02T13:08:19.669Z,23.40
2017-12-02T13:10:45.718Z,24.02
2017-12-02T13:13:11.741Z,26.02
2017-12-02T13:15:38.515Z,25.05
2017-12-02T13:18:04.778Z,30.20
2017-12-02T13:20:30.972Z,26.80
2017-12-02T13:22:57.085Z,25.23
2017-12-02T13:25:23.332Z,25.23
2017-12-02T13:27:49.576Z,23.90
2017-12-02T13:30:16.495Z,28.17
2017-12-02T13:32:42.641Z,22.70
2017-12-02T13:35:08.892Z,23.52
2017-12-02T13:37:35.626Z,22.37
2017-12-02T13:40:02.555Z,21.50
2017-12-02T13:42:28.647Z,24.15
2017-12-02T13:44:54.705Z,25.40
2017-12-02T13:47:21.852Z,22.27
2017-12-02T13:49:48.692Z,23.73
2017-12-02T13:52:14.722Z,24.30
2017-12-02T13:54:40.784Z,21.73
2017-12-02T13:57:07.219Z,23.85
2017-12-02T13:59:34.078Z,24.52
2017-12-02T14:02:00.089Z,23.23
2017-12-02T14:04:26.125Z,25.62
2017-12-02T14:06:52.232Z,23.45
2017-12-02T14:09:18.315Z,22.35
2017-12-02T14:11:44.345Z,25.02
2017-12-02T14:14:10.418Z,26.83
2017-12-02T14:16:37.358Z,25.00
2017-12-02T14:19:03.586Z,25.60
2017-12-02T14:21:29.734Z,24.25
2017-12-02T14:23:55.893Z,25.33
2017-12-02T14:26:22.748Z,26.33
2017-12-02T14:28:49.601Z,26.62
2017-12-02T14:31:16.406Z,25.62
2017-12-02T14:33:43.852Z,26.23
2017-12-02T14:36:10.403Z,27.55
2017-12-02T14:38:36.467Z,25.10
2017-12-02T14:41:02.515Z,24.08
2017-12-02T14:43:28.534Z,26.60
2017-12-02T14:45:55.070Z,26.83
2017-12-02T14:48:21.266Z,28.33
2017-12-02T14:50:48.118Z,23.92
2017-12-02T14:53:14.237Z,24.60
2017-12-02T14:55:42.200Z,28.20
2017-12-02T14:58:08.244Z,26.95
2017-12-02T15:00:36.061Z,25.20
2017-12-02T15:03:02.949Z,25.25
2017-12-02T15:05:29.909Z,28.30
2017-12-02T15:07:56.046Z,27.02
2017-12-02T15:10:22.101Z,27.70
2017-12-02T15:12:48.145Z,29.85
2017-12-02T15:15:14.222Z,32.28
2017-12-02T15:17:40.311Z,28.90
2017-12-02T15:20:06.520Z,29.60
2017-12-02T15:22:32.570Z,29.48
2017-12-02T15:24:58.610Z,33.72
2017-12-02T15:27:25.218Z,30.25
2017-12-02T15:29:51.996Z,28.30
2017-12-02T15:32:20.001Z,28.40
2017-12-02T15:34:46.085Z,31.92
2017-12-02T15:37:12.941Z,30.83
2017-12-02T15:39:39.101Z,26.37
2017-12-02T15:42:05.180Z,29.73
2017-12-02T15:44:31.458Z,29.87
2017-12-02T15:46:57.517Z,31.35
2017-12-02T15:49:24.413Z,35.97
2017-12-02T15:51:50.475Z,31.48
2017-12-02T15:54:16.698Z,28.48
2017-12-02T15:56:42.857Z,31.48
2017-12-02T15:59:08.937Z,29.92
2017-12-02T16:01:35.177Z,25.40
2017-12-02T16:04:01.240Z,26.00
2017-12-02T16:06:27.342Z,27.35
2017-12-02T16:08:53.503Z,25.25
2017-12-02T16:11:19.603Z,27.98
2017-12-02T16:13:45.722Z,28.15
2017-12-02T16:16:11.870Z,26.75
2017-12-02T16:18:42.650Z,30.00
2017-12-02T16:21:08.709Z,28.08
2017-12-02T16:23:34.874Z,27.70
2017-12-02T16:26:00.975Z,28.02
2017-12-02T16:28:27.778Z,27.92
2017-12-02T16:30:53.817Z,28.52
2017-12-02T16:33:19.889Z,27.75
2017-12-02T16:35:49.697Z,25.55
2017-12-02T16:38:15.738Z,28.50
2017-12-02T16:40:41.891Z,30.35
2017-12-02T16:43:07.934Z,30.98
2017-12-02T16:45:34.168Z,27.67
2017-12-02T16:48:00.250Z,31.33
2017-12-02T16:50:27.061Z,30.27
2017-12-02T16:52:53.125Z,29.75
2017-12-02T16:57:50.195Z,27.67
2017-12-02T17:00:16.237Z,28.98
2017-12-02T17:02:42.302Z,33.13
2017-12-02T17:05:08.410Z,28.10
2017-12-02T17:07:34.493Z,32.60
2017-12-02T17:10:01.321Z,31.92
2017-12-02T17:12:31.537Z,28.92
2017-12-02T17:14:58.051Z,25.05
2017-12-02T17:17:24.178Z,26.87
2017-12-02T17:19:50.982Z,24.10
2017-12-02T17:22:17.090Z,23.23
2017-12-02T17:24:43.913Z,23.17
2017-12-02T17:27:09.957Z,21.33
2017-12-02T17:29:38.135Z,21.80
2017-12-02T17:32:04.175Z,24.65
2017-12-02T17:34:30.241Z,20.95
2017-12-02T17:36:56.301Z,23.17
2017-12-02T17:39:23.162Z,28.27
2017-12-02T17:41:49.962Z,25.58
2017-12-02T17:44:16.012Z,25.45
2017-12-02T17:46:42.091Z,21.58
2017-12-02T17:49:08.641Z,26.05
2017-12-02T17:51:34.747Z,22.00
2017-12-02T17:54:00.788Z,24.87
2017-12-02T17:56:26.849Z,25.00
2017-12-02T17:58:53.689Z,23.85
2017-12-02T18:01:20.512Z,25.60
2017-12-02T18:03:46.612Z,25.67
2017-12-02T18:06:14.263Z,22.45
2017-12-02T18:08:40.453Z,26.95
2017-12-02T18:11:06.545Z,23.92
2017-12-02T18:13:32.742Z,22.08
2017-12-02T18:15:58.880Z,23.92
2017-12-02T18:18:25.165Z,22.83
2017-12-02T18:20:51.968Z,20.58
2017-12-02T18:23:18.053Z,25.92
2017-12-02T18:25:44.153Z,25.73
2017-12-02T18:28:10.260Z,24.05
2017-12-02T18:30:36.346Z,24.12
2017-12-02T18:33:02.445Z,24.80
2017-12-02T18:35:29.675Z,25.10
2017-12-02T18:37:55.878Z,24.33
2017-12-02T18:40:21.953Z,27.40
2017-12-02T18:42:48.746Z,27.35
2017-12-02T18:45:14.784Z,26.62
2017-12-02T18:47:40.883Z,25.73
2017-12-02T18:50:07.685Z,25.15
2017-12-02T18:52:33.751Z,27.83
2017-12-02T18:55:00.596Z,27.83
2017-12-02T18:57:26.725Z,29.52
2017-12-02T18:59:52.833Z,27.42
2017-12-02T19:02:18.918Z,28.35
2017-12-02T19:04:44.962Z,26.00
2017-12-02T19:07:11.817Z,26.92
2017-12-02T19:09:37.917Z,26.30
2017-12-02T19:12:04.045Z,27.42
2017-12-02T19:14:30.146Z,27.55
2017-12-02T19:16:57.061Z,28.60
2017-12-02T19:19:23.137Z,26.42
2017-12-02T19:21:49.981Z,25.00
2017-12-02T19:24:16.115Z,24.40
2017-12-02T19:26:42.175Z,31.27
2017-12-02T19:29:09.001Z,28.45
2017-12-02T19:31:35.074Z,29.95
2017-12-02T19:34:01.238Z,27.30
2017-12-02T19:36:27.304Z,25.17
2017-12-02T19:38:53.377Z,27.13
2017-12-02T19:41:20.150Z,28.30
2017-12-02T19:43:46.221Z,26.92
2017-12-02T19:46:12.367Z,24.05
2017-12-02T19:48:38.431Z,24.48
2017-12-02T19:51:05.615Z,25.80
2017-12-02T19:53:31.710Z,25.15
2017-12-02T19:55:57.804Z,26.50
2017-12-02T19:58:23.883Z,24.60
2017-12-02T20:00:49.947Z,25.23
2017-12-02T20:03:16.773Z,27.00
2017-12-02T20:05:42.869Z,25.73
2017-12-02T20:08:08.957Z,26.15
2017-12-02T20:10:35.090Z,25.45
2017-12-02T20:13:01.178Z,24.75
2017-12-02T20:15:27.223Z,24.90
2017-12-02T20:17:53.574Z,26.52
2017-12-02T20:20:19.826Z,26.27
2017-12-02T20:22:46.205Z,24.95
2017-12-02T20:25:13.193Z,24.95
2017-12-02T20:27:39.461Z,25.02
2017-12-02T20:30:05.745Z,23.87
2017-12-02T20:32:32.832Z,24.85
2017-12-02T20:35:00.926Z,24.30
2017-12-02T20:37:26.998Z,23.92
2017-12-02T20:39:53.094Z,25.40
2017-12-02T20:42:19.885Z,24.12
2017-12-02T20:44:45.929Z,24.30
2017-12-02T20:47:13.074Z,25.17
2017-12-02T20:49:39.160Z,25.23
2017-12-02T20:52:05.978Z,23.60
2017-12-02T20:54:32.026Z,25.30
2017-12-02T20:56:58.069Z,26.30
2017-12-02T20:59:24.459Z,26.80
2017-12-02T21:01:50.710Z,23.70
2017-12-02T21:04:17.733Z,27.35
2017-12-02T21:06:43.769Z,28.35
2017-12-02T21:09:09.843Z,25.65
2017-12-02T21:11:36.650Z,27.15
2017-12-02T21:14:02.683Z,24.80
2017-12-02T21:16:29.521Z,26.27
2017-12-02T21:18:55.545Z,27.70
2017-12-02T21:21:21.762Z,26.10
2017-12-02T21:23:47.988Z,29.60
2017-12-02T21:29:13.619Z,27.33
2017-12-02T21:31:40.732Z,28.17
2017-12-02T21:34:06.990Z,27.95
2017-12-02T21:36:34.093Z,29.45
2017-12-02T21:39:00.237Z,28.38
2017-12-02T21:41:27.293Z,29.52
2017-12-02T21:43:54.089Z,27.00
2017-12-02T21:46:21.095Z,26.67
2017-12-02T21:48:47.162Z,25.77
2017-12-02T21:51:14.161Z,27.58
2017-12-02T21:53:40.233Z,27.90
2017-12-02T21:56:06.550Z,29.70
2017-12-02T21:58:32.826Z,26.30
2017-12-02T22:00:59.303Z,31.48
2017-12-02T22:03:25.582Z,29.12
2017-12-02T22:05:51.836Z,26.60
2017-12-02T22:08:18.183Z,27.95
2017-12-02T22:10:44.422Z,23.80
2017-12-02T22:13:10.681Z,24.15
2017-12-02T22:15:37.784Z,29.42
2017-12-02T22:18:04.030Z,27.15
2017-12-02T22:20:30.322Z,26.12
2017-12-02T22:22:58.057Z,26.95
2017-12-02T22:25:24.284Z,24.87
2017-12-02T22:27:51.381Z,30.30
2017-12-02T22:30:17.731Z,27.27
2017-12-02T22:32:44.120Z,25.98
2017-12-02T22:35:10.477Z,28.40
2017-12-02T22:37:36.806Z,27.10
2017-12-02T22:40:03.119Z,26.92
2017-12-02T22:42:30.110Z,27.58
2017-12-02T22:44:56.404Z,28.20
2017-12-02T22:47:22.758Z,27.33
2017-12-02T22:49:49.733Z,27.48
2017-12-02T22:52:16.711Z,26.95
2017-12-02T22:54:42.950Z,25.35
2017-12-02T22:57:09.272Z,26.50
2017-12-02T22:59:36.272Z,27.80
2017-12-02T23:02:02.542Z,28.45
2017-12-02T23:04:28.789Z,28.38
2017-12-02T23:06:55.810Z,25.35
2017-12-02T23:09:22.055Z,27.05
2017-12-02T23:11:48.380Z,26.87
2017-12-02T23:14:14.639Z,28.33
2017-12-02T23:16:40.877Z,28.60
2017-12-02T23:19:07.173Z,25.75
2017-12-02T23:21:33.465Z,29.63
2017-12-02T23:23:59.734Z,24.70
2017-12-02T23:26:26.013Z,25.77
2017-12-02T23:28:52.297Z,26.25
2017-12-02T23:31:18.578Z,25.35
2017-12-02T23:33:45.600Z,23.00
2017-12-02T23:36:11.874Z,25.23
2017-12-02T23:38:38.877Z,25.12
2017-12-02T23:41:05.229Z,23.75
2017-12-02T23:43:31.445Z,23.55
2017-12-02T23:45:57.789Z,24.95
2017-12-02T23:48:24.076Z,24.87
2017-12-02T23:50:50.348Z,26.20
2017-12-02T23:53:17.349Z,24.60
2017-12-02T23:55:43.613Z,26.98
2017-12-02T23:58:09.907Z,24.15
